createdAt,value
2018-05-24T00:01:43.055Z,7.00
2018-05-24T00:04:11.947Z,9.77
2018-05-24T00:06:40.807Z,15.10
2018-05-24T00:09:09.650Z,6.70
2018-05-24T00:11:38.489Z,7.17
2018-05-24T00:14:07.396Z,8.80
2018-05-24T00:16:36.260Z,10.63
2018-05-24T00:19:05.103Z,10.87
2018-05-24T00:21:33.995Z,15.23
2018-05-24T00:24:02.875Z,16.00
2018-05-24T00:26:31.767Z,10.50
2018-05-24T00:29:00.633Z,11.57
2018-05-24T00:31:29.470Z,10.07
2018-05-24T00:33:58.326Z,12.10
2018-05-24T00:36:27.178Z,18.60
2018-05-24T00:38:56.023Z,8.90
2018-05-24T00:41:24.869Z,8.60
2018-05-24T00:44:00.088Z,9.17
2018-05-24T00:46:28.965Z,10.37
2018-05-24T00:48:57.822Z,11.23
2018-05-24T00:51:26.790Z,16.53
2018-05-24T00:53:55.646Z,10.27
2018-05-24T00:56:24.644Z,8.23
2018-05-24T00:58:53.538Z,18.80
2018-05-24T01:01:22.416Z,12.13
2018-05-24T01:03:51.354Z,8.47
2018-05-24T01:06:20.336Z,19.13
2018-05-24T01:08:49.284Z,20.47
2018-05-24T01:11:19.101Z,14.03
2018-05-24T01:13:47.990Z,23.23
2018-05-24T01:16:17.661Z,10.70
2018-05-24T01:18:52.341Z,13.77
2018-05-24T01:24:01.233Z,9.90
2018-05-24T01:26:31.884Z,20.73
2018-05-24T01:29:00.822Z,24.17
2018-05-24T01:31:29.729Z,16.83
2018-05-24T01:34:06.200Z,12.77
2018-05-24T01:36:40.899Z,14.83
2018-05-24T01:39:18.314Z,21.40
2018-05-24T01:41:59.696Z,8.87
2018-05-24T01:44:28.625Z,14.53
2018-05-24T01:46:57.501Z,9.90
2018-05-24T01:49:26.395Z,9.23
2018-05-24T01:51:56.215Z,12.30
2018-05-24T01:54:26.350Z,18.33
2018-05-24T01:57:02.116Z,15.67
2018-05-24T01:59:31.046Z,11.17
2018-05-24T02:02:00.096Z,9.50
2018-05-24T02:04:29.000Z,12.63
2018-05-24T02:07:22.909Z,16.10
2018-05-24T02:09:52.222Z,13.93
2018-05-24T02:12:21.228Z,11.40
2018-05-24T02:14:50.196Z,15.73
2018-05-24T02:17:36.748Z,14.90
2018-05-24T02:20:09.446Z,24.27
2018-05-24T02:22:38.372Z,16.27
2018-05-24T02:25:22.845Z,24.00
2018-05-24T02:27:51.881Z,10.13
2018-05-24T02:30:28.664Z,19.43
2018-05-24T02:32:57.634Z,11.73
2018-05-24T02:35:32.274Z,14.17
2018-05-24T02:38:01.224Z,9.37
2018-05-24T02:40:30.111Z,10.10
2018-05-24T02:42:59.009Z,23.90
2018-05-24T02:45:34.728Z,13.93
2018-05-24T02:48:05.054Z,8.30
2018-05-24T02:50:33.963Z,21.87
2018-05-24T02:53:12.493Z,13.80
2018-05-24T02:55:41.390Z,11.63
2018-05-24T02:58:18.216Z,9.73
2018-05-24T03:00:47.167Z,14.67
2018-05-24T03:03:16.057Z,12.57
2018-05-24T03:05:51.832Z,15.47
2018-05-24T03:08:20.707Z,12.10
2018-05-24T03:10:50.634Z,14.97
2018-05-24T03:13:19.631Z,12.37
2018-05-24T03:15:52.531Z,19.17
2018-05-24T03:18:21.460Z,8.40
2018-05-24T03:20:51.277Z,10.60
2018-05-24T03:23:20.412Z,14.40
2018-05-24T03:25:59.263Z,12.67
2018-05-24T03:28:41.292Z,14.57
2018-05-24T03:31:10.165Z,13.17
2018-05-24T03:33:39.025Z,17.77
2018-05-24T03:36:07.884Z,9.47
2018-05-24T03:38:37.121Z,22.13
2018-05-24T03:41:05.973Z,10.90
2018-05-24T03:43:34.847Z,8.60
2018-05-24T03:46:03.675Z,18.97
2018-05-24T03:48:32.531Z,23.77
2018-05-24T03:51:01.385Z,23.10
2018-05-24T03:53:30.225Z,25.40
2018-05-24T03:55:59.085Z,16.60
2018-05-24T03:58:27.927Z,21.57
2018-05-24T04:01:02.595Z,16.53
2018-05-24T04:03:37.126Z,17.07
2018-05-24T04:06:06.033Z,11.73
2018-05-24T04:08:34.899Z,20.00
2018-05-24T04:11:03.737Z,17.10
2018-05-24T04:13:32.614Z,18.23
2018-05-24T04:16:01.465Z,13.53
2018-05-24T04:18:30.529Z,15.30
2018-05-24T04:20:59.425Z,10.37
2018-05-24T04:23:28.299Z,13.93
2018-05-24T04:25:57.156Z,15.97
2018-05-24T04:28:26.044Z,12.30
2018-05-24T04:30:54.883Z,22.00
2018-05-24T04:33:23.742Z,15.17
2018-05-24T04:35:52.645Z,9.17
2018-05-24T04:38:21.485Z,23.23
2018-05-24T04:40:50.339Z,9.73
2018-05-24T04:43:19.219Z,13.90
2018-05-24T04:45:48.067Z,10.23
2018-05-24T04:48:16.910Z,16.07
2018-05-24T04:50:46.581Z,8.03
2018-05-24T04:53:15.423Z,15.60
2018-05-24T04:55:44.502Z,10.10
2018-05-24T04:58:13.365Z,16.30
2018-05-24T05:00:42.213Z,11.87
2018-05-24T05:03:11.072Z,9.23
2018-05-24T05:05:39.934Z,11.17
2018-05-24T05:08:08.766Z,7.17
2018-05-24T05:10:37.631Z,19.10
2018-05-24T05:13:06.490Z,7.90
2018-05-24T05:15:35.342Z,12.03
2018-05-24T05:18:04.224Z,11.00
2018-05-24T05:20:33.068Z,14.53
2018-05-24T05:23:01.938Z,13.10
2018-05-24T05:25:30.806Z,5.67
2018-05-24T05:27:59.685Z,6.07
2018-05-24T05:30:28.576Z,7.93
2018-05-24T05:32:57.444Z,5.30
2018-05-24T05:35:26.307Z,6.47
2018-05-24T05:37:55.150Z,8.17
2018-05-24T05:40:24.057Z,4.73
2018-05-24T05:42:53.027Z,5.93
2018-05-24T05:45:21.797Z,5.40
2018-05-24T05:47:50.683Z,5.67
2018-05-24T05:50:19.644Z,6.77
2018-05-24T05:52:48.743Z,5.07
2018-05-24T05:55:18.191Z,5.00
2018-05-24T05:57:47.152Z,6.00
2018-05-24T06:00:16.021Z,4.90
2018-05-24T06:02:45.235Z,7.83
2018-05-24T06:05:14.091Z,5.40
2018-05-24T06:07:43.953Z,6.80
2018-05-24T06:10:12.853Z,8.53
2018-05-24T06:12:41.705Z,6.27
2018-05-24T06:15:10.588Z,8.00
2018-05-24T06:17:39.455Z,5.37
2018-05-24T06:20:08.307Z,6.67
2018-05-24T06:22:37.156Z,5.40
2018-05-24T06:25:06.047Z,7.13
2018-05-24T06:27:34.904Z,8.07
2018-05-24T06:30:03.797Z,7.87
2018-05-24T06:32:32.647Z,6.27
2018-05-24T06:35:01.578Z,8.07
2018-05-24T06:37:30.443Z,6.23
2018-05-24T06:39:59.308Z,10.93
2018-05-24T06:42:28.159Z,7.00
2018-05-24T06:44:57.019Z,6.20
2018-05-24T06:47:26.204Z,7.77
2018-05-24T06:49:55.049Z,7.97
2018-05-24T06:52:23.906Z,7.17
2018-05-24T06:54:52.759Z,6.60
2018-05-24T06:57:21.653Z,7.53
2018-05-24T06:59:50.539Z,10.77
2018-05-24T07:02:20.286Z,7.27
2018-05-24T07:04:49.165Z,7.93
2018-05-24T07:07:18.007Z,8.00
2018-05-24T07:09:46.865Z,7.87
2018-05-24T07:12:15.727Z,9.17
2018-05-24T07:14:44.601Z,7.33
2018-05-24T07:17:13.457Z,7.83
2018-05-24T07:19:42.327Z,9.27
2018-05-24T07:22:11.173Z,7.03
2018-05-24T07:24:40.081Z,8.13
2018-05-24T07:27:08.895Z,8.40
2018-05-24T07:29:37.779Z,9.03
2018-05-24T07:32:06.700Z,8.63
2018-05-24T07:34:35.570Z,8.77
2018-05-24T07:37:04.444Z,7.43
2018-05-24T07:39:33.360Z,7.53
2018-05-24T07:42:02.168Z,6.60
2018-05-24T07:44:31.034Z,15.70
2018-05-24T07:46:59.904Z,8.73
2018-05-24T07:49:28.818Z,7.27
2018-05-24T07:51:57.694Z,7.23
2018-05-24T07:54:26.553Z,6.67
2018-05-24T07:56:55.418Z,7.87
2018-05-24T07:59:24.262Z,14.63
2018-05-24T08:01:53.098Z,9.17
2018-05-24T08:04:21.969Z,8.97
2018-05-24T08:06:50.807Z,9.53
2018-05-24T08:09:19.666Z,7.53
2018-05-24T08:11:48.528Z,8.50
2018-05-24T08:14:17.388Z,9.40
2018-05-24T08:16:46.226Z,8.20
2018-05-24T08:19:15.089Z,9.13
2018-05-24T08:21:43.939Z,6.93
2018-05-24T08:24:12.849Z,6.90
2018-05-24T08:26:41.765Z,9.37
2018-05-24T08:29:10.610Z,8.90
2018-05-24T08:31:39.444Z,7.67
2018-05-24T08:34:08.332Z,6.93
2018-05-24T08:36:37.332Z,9.43
2018-05-24T08:39:06.173Z,8.20
2018-05-24T08:41:35.027Z,9.33
2018-05-24T08:44:03.881Z,8.57
2018-05-24T08:46:32.855Z,12.87
2018-05-24T08:49:01.756Z,7.70
2018-05-24T08:51:30.603Z,8.97
2018-05-24T08:53:59.443Z,10.30
2018-05-24T08:56:28.311Z,9.20
2018-05-24T08:58:57.141Z,9.30
2018-05-24T09:01:26.067Z,8.03
2018-05-24T09:03:54.903Z,8.73
2018-05-24T09:06:23.813Z,8.93
2018-05-24T09:08:52.675Z,16.23
2018-05-24T09:11:21.531Z,7.93
2018-05-24T09:13:50.460Z,8.93
2018-05-24T09:16:19.318Z,8.40
2018-05-24T09:18:48.475Z,9.97
2018-05-24T09:21:17.344Z,9.63
2018-05-24T09:23:46.547Z,9.13
2018-05-24T09:26:15.400Z,8.90
2018-05-24T09:28:44.332Z,9.37
2018-05-24T09:31:13.183Z,10.97
2018-05-24T09:33:42.021Z,8.90
2018-05-24T09:36:10.919Z,8.57
2018-05-24T09:38:39.795Z,8.17
2018-05-24T09:41:12.091Z,7.63
2018-05-24T09:43:40.929Z,8.93
2018-05-24T09:46:09.809Z,8.67
2018-05-24T09:48:38.713Z,9.00
2018-05-24T09:51:07.561Z,8.90
2018-05-24T09:53:36.479Z,11.23
2018-05-24T09:56:05.379Z,9.50
2018-05-24T09:58:34.235Z,8.80
2018-05-24T10:01:03.086Z,8.33
2018-05-24T10:03:31.949Z,11.80
2018-05-24T10:06:00.831Z,9.63
2018-05-24T10:08:29.947Z,8.17
2018-05-24T10:10:58.803Z,8.57
2018-05-24T10:13:27.651Z,10.30
2018-05-24T10:15:56.497Z,10.60
2018-05-24T10:18:25.354Z,9.20
2018-05-24T10:20:54.186Z,11.50
2018-05-24T10:23:23.427Z,9.80
2018-05-24T10:25:52.235Z,9.17
2018-05-24T10:28:22.029Z,8.80
2018-05-24T10:30:51.029Z,9.90
2018-05-24T10:33:19.935Z,8.80
2018-05-24T10:35:49.546Z,8.80
2018-05-24T10:38:19.261Z,9.37
2018-05-24T10:40:48.097Z,10.27
2018-05-24T10:43:16.961Z,9.53
2018-05-24T10:45:46.129Z,9.93
2018-05-24T10:48:14.962Z,9.43
2018-05-24T10:50:43.869Z,9.97
2018-05-24T10:53:12.738Z,9.60
2018-05-24T10:55:41.580Z,9.20
2018-05-24T10:58:10.649Z,9.17
2018-05-24T11:00:39.538Z,9.73
2018-05-24T11:03:08.405Z,9.77
2018-05-24T11:05:37.252Z,10.23
2018-05-24T11:08:06.126Z,10.03
2018-05-24T11:10:34.971Z,10.03
2018-05-24T11:13:03.856Z,9.37
2018-05-24T11:15:32.736Z,9.67
2018-05-24T11:18:01.631Z,8.90
2018-05-24T11:20:30.577Z,9.30
2018-05-24T11:22:59.530Z,10.10
2018-05-24T11:25:28.433Z,9.70
2018-05-24T11:27:57.286Z,9.87
2018-05-24T11:30:26.177Z,9.07
2018-05-24T11:32:55.143Z,9.90
2018-05-24T11:35:24.005Z,10.03
2018-05-24T11:37:53.058Z,10.10
2018-05-24T11:40:21.904Z,9.60
2018-05-24T11:42:50.778Z,9.43
2018-05-24T11:45:20.933Z,9.20
2018-05-24T11:47:54.240Z,11.57
2018-05-24T11:50:25.614Z,8.90
2018-05-24T11:52:54.545Z,11.57
2018-05-24T11:55:23.402Z,8.97
2018-05-24T11:57:52.253Z,9.03
2018-05-24T12:00:21.125Z,10.73
2018-05-24T12:02:50.104Z,11.03
2018-05-24T12:05:20.120Z,10.10
2018-05-24T12:07:49.054Z,10.37
2018-05-24T12:10:18.209Z,11.63
2018-05-24T12:15:22.670Z,10.77
2018-05-24T12:17:51.632Z,11.70
2018-05-24T12:20:20.613Z,12.80
2018-05-24T12:22:49.519Z,11.00
2018-05-24T12:25:19.172Z,11.20
2018-05-24T12:27:48.114Z,9.27
2018-05-24T12:30:16.961Z,10.77
2018-05-24T12:32:45.813Z,8.90
2018-05-24T12:35:14.671Z,10.13
2018-05-24T12:37:43.548Z,9.70
2018-05-24T12:40:12.427Z,9.80
2018-05-24T12:42:41.317Z,10.60
2018-05-24T12:45:10.162Z,10.73
2018-05-24T12:47:39.029Z,10.70
2018-05-24T12:50:07.921Z,10.07
2018-05-24T12:52:36.788Z,10.37
2018-05-24T12:55:05.670Z,10.53
2018-05-24T12:57:34.557Z,10.47
2018-05-24T13:00:03.415Z,10.73
2018-05-24T13:02:32.260Z,10.60
2018-05-24T13:05:08.235Z,10.10
2018-05-24T13:07:37.077Z,9.80
2018-05-24T13:10:05.939Z,9.33
2018-05-24T13:12:34.783Z,10.17
2018-05-24T13:15:03.650Z,9.43
2018-05-24T13:17:32.517Z,9.20
2018-05-24T13:20:02.211Z,10.50
2018-05-24T13:22:31.071Z,10.13
2018-05-24T13:24:59.936Z,10.57
2018-05-24T13:27:28.815Z,13.97
2018-05-24T13:29:57.677Z,11.40
2018-05-24T13:32:26.524Z,11.77
2018-05-24T13:34:55.403Z,13.00
2018-05-24T13:37:24.237Z,11.00
2018-05-24T13:39:53.079Z,10.13
2018-05-24T13:42:21.991Z,12.03
2018-05-24T13:44:50.831Z,11.00
2018-05-24T13:47:19.679Z,12.90
2018-05-24T13:49:48.586Z,12.30
2018-05-24T13:52:17.459Z,13.03
2018-05-24T13:54:46.319Z,14.60
2018-05-24T13:57:15.187Z,15.57
2018-05-24T13:59:44.034Z,14.10
2018-05-24T14:02:12.956Z,14.87
2018-05-24T14:04:44.156Z,16.60
2018-05-24T14:07:13.018Z,15.80
2018-05-24T14:09:41.858Z,16.17
2018-05-24T14:12:10.793Z,15.53
2018-05-24T14:14:39.896Z,17.03
2018-05-24T14:17:09.130Z,15.27
2018-05-24T14:19:38.002Z,16.37
2018-05-24T14:22:06.862Z,17.43
2018-05-24T14:24:35.736Z,17.93
2018-05-24T14:27:04.671Z,19.67
2018-05-24T14:29:33.528Z,18.53
2018-05-24T14:32:02.716Z,19.67
2018-05-24T14:34:31.650Z,20.50
2018-05-24T14:37:00.522Z,20.20
2018-05-24T14:39:29.372Z,21.37
2018-05-24T14:41:58.238Z,20.97
2018-05-24T14:44:27.096Z,21.90
2018-05-24T14:46:55.986Z,20.37
2018-05-24T14:49:24.875Z,19.20
2018-05-24T14:51:53.770Z,20.53
2018-05-24T14:54:22.613Z,21.23
2018-05-24T14:56:51.510Z,19.73
2018-05-24T14:59:20.382Z,18.77
2018-05-24T15:01:49.233Z,18.00
2018-05-24T15:04:18.118Z,17.53
2018-05-24T15:06:47.014Z,17.67
2018-05-24T15:09:15.863Z,19.60
2018-05-24T15:11:44.725Z,17.93
2018-05-24T15:14:13.602Z,17.33
2018-05-24T15:16:43.029Z,17.13
2018-05-24T15:19:11.904Z,16.13
2018-05-24T15:21:40.767Z,19.00
2018-05-24T15:24:09.626Z,15.53
2018-05-24T15:26:38.475Z,16.90
2018-05-24T15:29:07.343Z,15.33
2018-05-24T15:31:36.188Z,14.80
2018-05-24T15:34:05.065Z,15.93
2018-05-24T15:36:33.921Z,11.70
2018-05-24T15:39:02.777Z,11.63
2018-05-24T15:41:31.670Z,11.43
2018-05-24T15:44:00.564Z,10.63
2018-05-24T15:46:29.402Z,11.27
2018-05-24T15:48:58.299Z,10.80
2018-05-24T15:51:27.184Z,10.70
2018-05-24T15:53:56.717Z,14.43
2018-05-24T15:56:25.570Z,12.10
2018-05-24T15:58:54.419Z,11.70
2018-05-24T16:01:23.275Z,11.43
2018-05-24T16:03:52.155Z,15.00
2018-05-24T16:06:21.071Z,14.20
2018-05-24T16:08:50.769Z,12.57
2018-05-24T16:11:19.664Z,12.33
2018-05-24T16:13:48.566Z,11.47
2018-05-24T16:16:17.425Z,10.77
2018-05-24T16:18:46.337Z,11.57
2018-05-24T16:21:15.400Z,12.00
2018-05-24T16:23:44.239Z,13.20
2018-05-24T16:26:13.135Z,12.67
2018-05-24T16:28:42.149Z,13.30
2018-05-24T16:31:11.137Z,15.23
2018-05-24T16:33:40.073Z,20.30
2018-05-24T16:36:09.258Z,16.07
2018-05-24T16:38:38.104Z,16.17
2018-05-24T16:41:07.136Z,16.70
2018-05-24T16:43:36.050Z,16.70
2018-05-24T16:46:05.023Z,16.20
2018-05-24T16:48:33.973Z,15.30
2018-05-24T16:51:02.818Z,12.67
2018-05-24T16:53:31.711Z,13.77
2018-05-24T16:56:00.614Z,11.53
2018-05-24T16:58:29.450Z,12.33
2018-05-24T17:00:58.326Z,12.20
2018-05-24T17:03:27.988Z,10.90
2018-05-24T17:05:57.950Z,11.63
2018-05-24T17:08:26.828Z,11.30
2018-05-24T17:10:55.670Z,10.47
2018-05-24T17:13:25.231Z,10.83
2018-05-24T17:16:01.817Z,10.77
2018-05-24T17:18:30.752Z,9.80
2018-05-24T17:20:59.615Z,12.13
2018-05-24T17:23:28.812Z,11.60
2018-05-24T17:25:57.934Z,11.27
2018-05-24T17:28:26.831Z,11.43
2018-05-24T17:30:55.989Z,11.63
2018-05-24T17:33:24.842Z,13.37
2018-05-24T17:35:53.696Z,11.60
2018-05-24T17:38:22.675Z,12.47
2018-05-24T17:40:51.704Z,12.80
2018-05-24T17:43:20.575Z,11.73
2018-05-24T17:45:49.456Z,12.00
2018-05-24T17:48:18.301Z,11.57
2018-05-24T17:50:47.481Z,12.00
2018-05-24T17:53:16.370Z,12.43
2018-05-24T17:55:46.844Z,12.67
2018-05-24T17:58:15.727Z,14.77
2018-05-24T18:00:45.397Z,11.87
2018-05-24T18:03:14.782Z,13.10
2018-05-24T18:08:23.020Z,11.67
2018-05-24T18:10:51.954Z,14.07
2018-05-24T18:13:21.007Z,11.80
2018-05-24T18:15:49.871Z,11.23
2018-05-24T18:18:18.975Z,10.80
2018-05-24T18:20:47.913Z,12.03
2018-05-24T18:23:16.765Z,11.37
2018-05-24T18:25:45.639Z,11.43
2018-05-24T18:28:14.491Z,13.73
2018-05-24T18:30:43.357Z,13.37
2018-05-24T18:33:12.249Z,13.17
2018-05-24T18:35:41.097Z,12.00
2018-05-24T18:38:10.722Z,12.33
2018-05-24T18:40:39.619Z,11.80
2018-05-24T18:43:12.496Z,12.63
2018-05-24T18:45:41.366Z,11.50
2018-05-24T18:48:10.254Z,14.97
2018-05-24T18:50:39.127Z,12.63
2018-05-24T18:53:07.996Z,12.73
2018-05-24T18:55:36.847Z,11.53
2018-05-24T18:58:05.703Z,12.43
2018-05-24T19:00:34.580Z,12.93
2018-05-24T19:03:03.442Z,12.23
2018-05-24T19:05:32.283Z,13.50
2018-05-24T19:08:01.184Z,15.47
2018-05-24T19:10:30.110Z,13.17
2018-05-24T19:12:58.961Z,12.87
2018-05-24T19:15:28.002Z,12.80
2018-05-24T19:17:56.855Z,11.93
2018-05-24T19:20:25.760Z,12.83
2018-05-24T19:22:54.802Z,11.33
2018-05-24T19:25:23.657Z,11.70
2018-05-24T19:27:52.500Z,11.20
2018-05-24T19:30:21.378Z,11.03
2018-05-24T19:32:50.211Z,13.23
2018-05-24T19:35:19.175Z,11.30
2018-05-24T19:37:48.112Z,13.47
2018-05-24T19:40:17.038Z,21.60
2018-05-24T19:42:45.886Z,19.10
2018-05-24T19:45:14.794Z,19.57
2018-05-24T19:47:44.011Z,21.47
2018-05-24T19:50:12.853Z,19.50
2018-05-24T19:52:43.287Z,20.50
2018-05-24T19:55:12.434Z,21.10
2018-05-24T19:57:41.314Z,21.73
2018-05-24T20:00:10.210Z,23.03
2018-05-24T20:02:39.712Z,21.90
2018-05-24T20:05:08.628Z,26.47
2018-05-24T20:07:37.592Z,24.57
2018-05-24T20:10:06.533Z,23.53
2018-05-24T20:12:36.290Z,23.87
2018-05-24T20:15:05.190Z,21.93
2018-05-24T20:17:34.402Z,22.17
2018-05-24T20:20:03.368Z,22.33
2018-05-24T20:22:32.292Z,19.73
2018-05-24T20:25:01.178Z,22.93
2018-05-24T20:27:30.083Z,20.40
2018-05-24T20:29:58.989Z,20.37
2018-05-24T20:32:28.007Z,19.60
2018-05-24T20:34:56.972Z,21.23
2018-05-24T20:37:25.994Z,18.97
2018-05-24T20:39:54.887Z,20.30
2018-05-24T20:42:23.802Z,22.63
2018-05-24T20:44:52.952Z,18.83
2018-05-24T20:47:21.920Z,21.83
2018-05-24T20:49:50.778Z,25.03
2018-05-24T20:52:19.665Z,24.33
2018-05-24T20:54:48.517Z,19.53
2018-05-24T20:57:17.383Z,22.03
2018-05-24T20:59:46.539Z,25.10
2018-05-24T21:02:15.681Z,24.50
2018-05-24T21:04:44.537Z,21.20
2018-05-24T21:07:13.398Z,19.43
2018-05-24T21:09:42.416Z,23.90
2018-05-24T21:12:11.277Z,22.07
2018-05-24T21:14:40.321Z,21.60
2018-05-24T21:17:14.549Z,20.53
2018-05-24T21:19:43.428Z,18.90
2018-05-24T21:22:12.278Z,21.97
2018-05-24T21:24:41.125Z,20.73
2018-05-24T21:27:10.232Z,20.57
2018-05-24T21:29:39.292Z,23.97
2018-05-24T21:32:08.284Z,21.50
2018-05-24T21:34:37.127Z,23.33
2018-05-24T21:37:05.994Z,24.70
2018-05-24T21:39:35.157Z,26.77
2018-05-24T21:42:04.022Z,25.07
2018-05-24T21:44:32.870Z,26.00
2018-05-24T21:47:01.788Z,27.93
2018-05-24T21:49:31.507Z,30.67
2018-05-24T21:52:03.398Z,27.40
2018-05-24T21:54:32.287Z,23.57
2018-05-24T21:57:01.147Z,27.07
2018-05-24T21:59:30.021Z,29.10
2018-05-24T22:01:58.936Z,26.43
2018-05-24T22:04:29.039Z,29.87
2018-05-24T22:06:57.933Z,28.13
2018-05-24T22:09:26.843Z,28.03
2018-05-24T22:11:55.695Z,29.60
2018-05-24T22:14:25.398Z,24.50
2018-05-24T22:16:54.337Z,27.00
2018-05-24T22:19:23.194Z,28.20
2018-05-24T22:21:52.077Z,29.93
2018-05-24T22:24:20.917Z,28.27
2018-05-24T22:26:49.785Z,31.67
2018-05-24T22:29:22.284Z,23.27
2018-05-24T22:31:54.005Z,27.13
2018-05-24T22:34:24.011Z,29.70
2018-05-24T22:36:52.853Z,27.23
2018-05-24T22:39:22.023Z,27.83
2018-05-24T22:41:50.898Z,26.57
2018-05-24T22:44:19.789Z,19.57
2018-05-24T22:46:48.635Z,23.87
2018-05-24T22:49:17.511Z,25.20
2018-05-24T22:51:46.359Z,22.97
2018-05-24T22:54:15.203Z,20.80
2018-05-24T22:56:44.517Z,21.60
2018-05-24T22:59:13.349Z,23.17
2018-05-24T23:01:42.223Z,21.90
2018-05-24T23:04:11.134Z,24.37
2018-05-24T23:06:40.009Z,23.57
2018-05-24T23:09:08.869Z,22.70
2018-05-24T23:11:37.734Z,26.60
2018-05-24T23:14:06.616Z,23.90
2018-05-24T23:16:35.481Z,20.23
2018-05-24T23:19:04.371Z,23.47
2018-05-24T23:21:34.163Z,35.17
2018-05-24T23:24:03.045Z,25.67
2018-05-24T23:26:31.924Z,25.67
2018-05-24T23:29:00.794Z,25.40
2018-05-24T23:31:29.648Z,30.83
2018-05-24T23:33:58.550Z,21.80
2018-05-24T23:36:27.406Z,18.37
2018-05-24T23:38:56.246Z,25.53
2018-05-24T23:41:25.153Z,24.87
2018-05-24T23:43:54.015Z,19.40
2018-05-24T23:46:22.884Z,23.77
2018-05-24T23:48:51.750Z,20.43
2018-05-24T23:51:20.593Z,26.53
2018-05-24T23:53:49.438Z,39.60
2018-05-24T23:56:18.318Z,31.97
2018-05-24T23:58:47.196Z,43.07
